Time;durP1;ratioP1;P1;durP2;ratioP2;P2;SDS_P1;SDS_P2;PMS_P1;PMS_P2;Temp;Humidity;BMP_temperature;BMP_pressure;BME280_temperature;BME280_humidity;BME280_pressure;Samples;Min_cycle;Max_cycle;Signal;HPM_P1;HPM_P2
2022/04/26 03:38:12;;;;;;;;;;;7.60;99.90;;;;;;5059163;28;19918;-83
2022/04/26 03:40:38;;;;;;;;;;;7.50;99.90;;;;;;5048879;28;20380;-85
2022/04/26 03:43:03;;;;;;;;;;;7.50;99.90;;;;;;5039700;28;20340;-83
2022/04/26 03:45:29;;;;;;;;;;;7.60;99.90;;;;;;5027023;28;19917;-83
2022/04/26 03:47:54;;;;;;;;;;;7.60;99.90;;;;;;5033578;28;19927;-83
2022/04/26 03:50:21;;;;;;;;;;;7.50;99.90;;;;;;5032023;28;19999;-83
2022/04/26 03:52:47;;;;;;;;;;;7.50;99.90;;;;;;5052092;28;19917;-83
2022/04/26 03:55:12;;;;;;;;;;;7.50;99.90;;;;;;5065255;28;20432;-83
2022/04/26 03:57:38;;;;;;;;;;;7.50;99.90;;;;;;5039012;28;20333;-83
2022/04/26 04:00:04;;;;;;;;;;;7.40;99.90;;;;;;5055550;28;19963;-83
2022/04/26 04:02:29;;;;;;;;;;;7.40;99.90;;;;;;5048145;28;19967;-83
2022/04/26 04:04:55;;;;;;;;;;;7.40;99.90;;;;;;5019250;28;19916;-83
2022/04/26 04:07:20;;;;;;;;;;;7.40;99.90;;;;;;5052210;28;19917;-83
2022/04/26 04:09:46;;;;;;;;;;;7.30;99.90;;;;;;5051909;28;20387;-83
2022/04/26 04:12:11;;;;;;;;;;;7.30;99.90;;;;;;5051764;28;20430;-84
2022/04/26 04:14:37;;;;;;;;;;;7.30;99.90;;;;;;5050024;28;20276;-84
2022/04/26 04:17:03;;;;;;;;;;;7.30;99.90;;;;;;5039776;28;19927;-84
2022/04/26 04:19:29;;;;;;;;;;;7.30;99.90;;;;;;5035635;28;20333;-83
2022/04/26 04:21:55;;;;;;;;;;;7.30;99.90;;;;;;5057177;28;19912;-83
2022/04/26 04:24:21;;;;;;;;;;;7.30;99.90;;;;;;5038607;28;19927;-83
2022/04/26 04:26:46;;;;;;;;;;;7.30;99.90;;;;;;5028388;28;19923;-83
2022/04/26 04:29:12;;;;;;;;;;;7.30;99.90;;;;;;5019879;28;20015;-83
2022/04/26 04:31:41;;;;;;;;;;;7.30;99.90;;;;;;5030555;28;19936;-83
2022/04/26 04:34:07;;;;;;;;;;;7.30;99.90;;;;;;5035137;28;20196;-83
2022/04/26 04:36:32;;;;;;;;;;;7.30;99.90;;;;;;5034893;28;20272;-83
2022/04/26 04:38:58;;;;;;;;;;;7.30;99.90;;;;;;5034632;28;20316;-83
2022/04/26 04:41:24;;;;;;;;;;;7.40;99.90;;;;;;5035214;28;19909;-83
2022/04/26 04:43:49;;;;;;;;;;;7.40;99.90;;;;;;5049394;28;19913;-83
2022/04/26 04:46:15;;;;;;;;;;;7.40;99.90;;;;;;5035484;28;20015;-83
2022/04/26 04:48:40;;;;;;;;;;;7.40;99.90;;;;;;5034531;28;19913;-83
2022/04/26 04:51:07;;;;;;;;;;;7.40;99.90;;;;;;5038629;28;19966;-83
2022/04/26 04:53:33;;;;;;;;;;;7.40;99.90;;;;;;5025040;28;19921;-83
2022/04/26 04:55:58;;;;;;;;;;;7.30;99.90;;;;;;5054477;28;19913;-83
2022/04/26 04:58:25;;;;;;;;;;;7.30;99.90;;;;;;5029232;28;19943;-83
2022/04/26 05:00:51;;;;;;;;;;;7.30;99.90;;;;;;5037132;28;19963;-84
2022/04/26 05:03:16;;;;;;;;;;;7.40;99.90;;;;;;5052915;28;20371;-83
2022/04/26 05:05:42;;;;;;;;;;;7.40;99.90;;;;;;5051108;28;19961;-83
2022/04/26 05:08:11;;;;;;;;;;;7.40;99.90;;;;;;5050842;28;20286;-83
2022/04/26 05:10:37;;;;;;;;;;;7.40;99.90;;;;;;5050564;28;19913;-83
2022/04/26 05:13:03;;;;;;;;;;;7.40;99.90;;;;;;5049786;28;20481;-83
2022/04/26 05:15:28;;;;;;;;;;;7.40;99.90;;;;;;5051442;28;20406;-83
2022/04/26 05:17:54;;;;;;;;;;;7.40;99.90;;;;;;5057538;28;20011;-83
2022/04/26 05:20:20;;;;;;;;;;;7.40;99.90;;;;;;5053813;28;20398;-84
2022/04/26 05:25:32;;;;;;;;;;;7.40;99.90;;;;;;5045415;28;19962;-83
2022/04/26 05:27:57;;;;;;;;;;;7.50;99.90;;;;;;5053413;28;20001;-83
2022/04/26 05:30:23;;;;;;;;;;;7.60;99.90;;;;;;5036932;28;20400;-83
2022/04/26 05:32:49;;;;;;;;;;;7.70;99.90;;;;;;5023920;28;20450;-83
2022/04/26 05:35:14;;;;;;;;;;;7.80;99.90;;;;;;5028631;28;20286;-83
2022/04/26 05:37:40;;;;;;;;;;;8.00;99.90;;;;;;5037391;28;20034;-83
2022/04/26 05:40:06;;;;;;;;;;;8.10;99.90;;;;;;5050134;28;19912;-83
2022/04/26 05:42:35;;;;;;;;;;;8.30;99.90;;;;;;5049996;28;20394;-83
2022/04/26 05:45:00;;;;;;;;;;;8.40;99.90;;;;;;5057521;28;19919;-83
2022/04/26 05:47:26;;;;;;;;;;;8.50;99.90;;;;;;5036955;28;19916;-83
2022/04/26 05:49:52;;;;;;;;;;;8.60;99.90;;;;;;5053248;28;19909;-83
2022/04/26 05:52:18;;;;;;;;;;;8.60;99.90;;;;;;5028036;28;19921;-84
2022/04/26 05:54:43;;;;;;;;;;;8.60;99.90;;;;;;5014233;28;20213;-84
2022/04/26 05:57:09;;;;;;;;;;;8.60;99.90;;;;;;5030273;28;19913;-84
2022/04/26 05:59:34;;;;;;;;;;;8.60;99.90;;;;;;5029972;28;20261;-84
2022/04/26 06:02:00;;;;;;;;;;;8.60;99.90;;;;;;5045481;28;19921;-84
2022/04/26 06:04:25;;;;;;;;;;;8.60;99.90;;;;;;5063430;28;19916;-83
2022/04/26 06:06:51;;;;;;;;;;;8.70;99.90;;;;;;5032264;28;19944;-83
2022/04/26 06:09:17;;;;;;;;;;;8.70;99.90;;;;;;5032946;28;19916;-83
2022/04/26 06:11:42;;;;;;;;;;;8.80;99.90;;;;;;5034049;28;19913;-84
2022/04/26 06:14:08;;;;;;;;;;;8.90;99.90;;;;;;5037854;28;19975;-84
2022/04/26 06:16:34;;;;;;;;;;;9.10;99.90;;;;;;5056830;28;19995;-84
2022/04/26 06:18:59;;;;;;;;;;;9.20;99.90;;;;;;5052004;28;20305;-83
2022/04/26 06:21:25;;;;;;;;;;;9.40;99.90;;;;;;5033657;28;19924;-83
2022/04/26 06:23:50;;;;;;;;;;;9.50;99.90;;;;;;5052662;28;19928;-84
2022/04/26 06:26:16;;;;;;;;;;;9.50;99.90;;;;;;5028979;28;19921;-85
2022/04/26 06:28:42;;;;;;;;;;;9.40;99.90;;;;;;5032849;28;19920;-85
2022/04/26 06:31:07;;;;;;;;;;;9.30;99.90;;;;;;5076929;22;20017;-90
2022/04/26 06:33:34;;;;;;;;;;;9.20;99.90;;;;;;5032380;28;19917;-86
2022/04/26 06:36:00;;;;;;;;;;;9.20;99.90;;;;;;5030088;28;19921;-88
2022/04/26 06:38:26;;;;;;;;;;;9.20;99.90;;;;;;5050190;28;19935;-88
2022/04/26 06:40:52;;;;;;;;;;;9.20;99.90;;;;;;5024316;28;20012;-86
2022/04/26 06:43:18;;;;;;;;;;;9.30;99.90;;;;;;5057625;28;19909;-87
2022/04/26 06:45:46;;;;;;;;;;;9.40;99.90;;;;;;5038169;28;19912;-86
2022/04/26 06:48:12;;;;;;;;;;;9.50;99.90;;;;;;5043560;28;20412;-87
2022/04/26 06:50:38;;;;;;;;;;;9.70;99.90;;;;;;5043623;28;20418;-86
2022/04/26 06:53:03;;;;;;;;;;;9.80;99.90;;;;;;5059197;28;19999;-86
2022/04/26 06:55:29;;;;;;;;;;;9.90;99.90;;;;;;5051657;28;20233;-86
2022/04/26 06:57:54;;;;;;;;;;;10.10;99.90;;;;;;5063028;28;20384;-86
2022/04/26 07:00:20;;;;;;;;;;;10.30;99.90;;;;;;5060649;28;19913;-88
2022/04/26 07:02:45;;;;;;;;;;;10.50;99.90;;;;;;5061083;28;20008;-85
2022/04/26 07:05:11;;;;;;;;;;;10.50;99.90;;;;;;5045665;28;19912;-85
2022/04/26 07:07:37;;;;;;;;;;;10.50;99.90;;;;;;5062995;28;19912;-86
2022/04/26 07:10:03;;;;;;;;;;;10.50;99.90;;;;;;5031846;28;19939;-86
2022/04/26 07:12:28;;;;;;;;;;;10.40;99.90;;;;;;5026164;28;19959;-86
2022/04/26 07:14:54;;;;;;;;;;;10.20;99.90;;;;;;5028124;28;19917;-85
2022/04/26 07:17:19;;;;;;;;;;;10.10;99.90;;;;;;5039160;28;19924;-86
2022/04/26 07:19:45;;;;;;;;;;;10.10;99.90;;;;;;5039370;28;19928;-86
2022/04/26 07:22:10;;;;;;;;;;;10.20;99.90;;;;;;5040720;28;19909;-87
2022/04/26 07:24:36;;;;;;;;;;;10.20;99.90;;;;;;5027312;28;19912;-86
2022/04/26 07:27:03;;;;;;;;;;;10.30;99.90;;;;;;5029234;28;19916;-85
2022/04/26 07:29:28;;;;;;;;;;;10.20;99.90;;;;;;5061146;28;19924;-87
2022/04/26 07:31:54;;;;;;;;;;;10.20;99.90;;;;;;5063267;28;19916;-86
2022/04/26 07:34:23;;;;;;;;;;;10.20;99.90;;;;;;5029761;28;19916;-85
2022/04/26 07:36:52;;;;;;;;;;;10.20;99.90;;;;;;5030427;28;19925;-88
2022/04/26 07:39:18;;;;;;;;;;;10.30;99.90;;;;;;5064754;28;19917;-86
2022/04/26 07:41:45;;;;;;;;;;;10.40;99.90;;;;;;5065254;28;19947;-85
2022/04/26 07:44:11;;;;;;;;;;;10.60;99.90;;;;;;5063291;28;19957;-86
2022/04/26 07:46:37;;;;;;;;;;;10.90;99.90;;;;;;5029343;28;19984;-85
2022/04/26 07:49:03;;;;;;;;;;;11.10;99.90;;;;;;5044980;28;19908;-86
2022/04/26 07:51:30;;;;;;;;;;;11.40;99.90;;;;;;5047428;28;20116;-88
2022/04/26 07:53:56;;;;;;;;;;;11.60;99.90;;;;;;5048298;28;19988;-86
2022/04/26 07:56:21;;;;;;;;;;;11.80;99.90;;;;;;5064864;28;19964;-87
2022/04/26 07:58:47;;;;;;;;;;;12.00;99.90;;;;;;5051074;28;19940;-85
2022/04/26 08:01:12;;;;;;;;;;;12.10;99.90;;;;;;5028717;28;19917;-86
2022/04/26 08:03:38;;;;;;;;;;;12.20;99.90;;;;;;5029043;28;19920;-86
2022/04/26 08:06:03;;;;;;;;;;;12.20;99.90;;;;;;5041345;28;19923;-87
2022/04/26 08:08:29;;;;;;;;;;;12.00;99.90;;;;;;5065586;28;20342;-86
2022/04/26 08:10:54;;;;;;;;;;;11.80;99.90;;;;;;5044193;28;19925;-86
2022/04/26 08:13:20;;;;;;;;;;;11.70;99.90;;;;;;5028240;28;19962;-86
2022/04/26 08:15:45;;;;;;;;;;;11.50;99.90;;;;;;5036344;28;19913;-86
2022/04/26 08:18:11;;;;;;;;;;;11.30;99.90;;;;;;5040445;28;19917;-85
2022/04/26 08:20:37;;;;;;;;;;;11.20;99.90;;;;;;5025254;28;19940;-86
2022/04/26 08:23:03;;;;;;;;;;;11.10;99.90;;;;;;5042705;28;19924;-86
2022/04/26 08:28:13;;;;;;;;;;;10.70;99.90;;;;;;5047237;28;19955;-87
2022/04/26 08:30:39;;;;;;;;;;;10.40;99.90;;;;;;5047729;28;19918;-87
2022/04/26 08:33:04;;;;;;;;;;;10.00;99.90;;;;;;5032692;28;19958;-86
2022/04/26 08:35:31;;;;;;;;;;;9.80;99.90;;;;;;5049892;28;19940;-85
2022/04/26 08:37:56;;;;;;;;;;;9.60;99.90;;;;;;5049738;28;20000;-87
2022/04/26 08:40:22;;;;;;;;;;;9.50;99.90;;;;;;5070172;28;19916;-86
2022/04/26 08:42:49;;;;;;;;;;;9.60;99.90;;;;;;5053469;28;20403;-86
2022/04/26 08:45:16;;;;;;;;;;;9.70;99.90;;;;;;5058802;28;19923;-86
2022/04/26 08:53:15;;;;;;;;;;;10.20;99.90;;;;;;5075285;28;20422;-86
2022/04/26 08:55:42;;;;;;;;;;;10.30;99.90;;;;;;5069454;28;19940;-86
2022/04/26 08:58:11;;;;;;;;;;;10.50;99.90;;;;;;5057576;28;19920;-87
2022/04/26 09:00:38;;;;;;;;;;;10.60;99.90;;;;;;5061483;28;19923;-87
2022/04/26 09:03:05;;;;;;;;;;;10.70;99.90;;;;;;5062050;28;19992;-88
2022/04/26 09:05:31;;;;;;;;;;;10.70;99.90;;;;;;5049796;28;19916;-88
2022/04/26 09:07:58;;;;;;;;;;;10.70;99.90;;;;;;5065996;28;19913;-87
2022/04/26 09:10:25;;;;;;;;;;;10.80;99.90;;;;;;5064366;28;19951;-87
2022/04/26 09:13:07;;;;;;;;;;;10.70;99.90;;;;;;5032530;28;19924;-86
2022/04/26 09:15:34;;;;;;;;;;;10.80;99.90;;;;;;5050448;28;19928;-86
2022/04/26 09:18:20;;;;;;;;;;;11.00;99.90;;;;;;5069026;28;20284;-88
2022/04/26 09:20:48;;;;;;;;;;;11.20;99.90;;;;;;5062872;28;20321;-88
2022/04/26 09:23:15;;;;;;;;;;;11.50;99.90;;;;;;5048563;28;19913;-87
2022/04/26 09:25:41;;;;;;;;;;;11.80;99.90;;;;;;5051307;28;19956;-88
2022/04/26 09:28:07;;;;;;;;;;;11.90;99.90;;;;;;5044729;28;19916;-90
2022/04/26 09:30:33;;;;;;;;;;;12.10;99.90;;;;;;5038055;28;19917;-87
2022/04/26 09:32:58;;;;;;;;;;;12.10;99.90;;;;;;5033735;28;19932;-88
2022/04/26 09:35:29;;;;;;;;;;;12.10;99.90;;;;;;5033353;28;19913;-87
2022/04/26 09:37:54;;;;;;;;;;;11.90;99.10;;;;;;5042312;28;20032;-87
2022/04/26 09:40:20;;;;;;;;;;;11.80;99.80;;;;;;5037598;28;19921;-87
2022/04/26 09:42:48;;;;;;;;;;;11.60;99.90;;;;;;5056770;28;19995;-88
2022/04/26 09:45:15;;;;;;;;;;;11.50;99.90;;;;;;5059334;28;19913;-86
2022/04/26 09:47:41;;;;;;;;;;;11.40;99.90;;;;;;5049223;28;19909;-89
2022/04/26 09:50:09;;;;;;;;;;;11.30;99.90;;;;;;5048166;28;19909;-88
2022/04/26 09:52:35;;;;;;;;;;;11.30;99.90;;;;;;5047896;28;19951;-89
2022/04/26 09:55:01;;;;;;;;;;;11.30;99.90;;;;;;5032159;28;19913;-87
2022/04/26 09:57:28;;;;;;;;;;;11.30;99.90;;;;;;5047403;28;19909;-87
2022/04/26 09:59:53;;;;;;;;;;;11.30;99.90;;;;;;5047068;28;19921;-87
2022/04/26 10:02:22;;;;;;;;;;;11.50;99.90;;;;;;5034549;28;19939;-86
2022/04/26 10:04:49;;;;;;;;;;;11.70;99.90;;;;;;5048832;28;19917;-87
2022/04/26 10:07:17;;;;;;;;;;;11.80;99.90;;;;;;5048455;28;19988;-86
2022/04/26 10:09:46;;;;;;;;;;;11.80;99.90;;;;;;5068195;28;19912;-86
2022/04/26 10:12:12;;;;;;;;;;;11.90;99.90;;;;;;5067304;28;19919;-86
2022/04/26 10:14:37;;;;;;;;;;;12.00;99.90;;;;;;5052507;28;20007;-87
2022/04/26 10:17:03;;;;;;;;;;;12.30;99.90;;;;;;5032314;28;19913;-88
2022/04/26 10:19:39;;;;;;;;;;;12.80;99.90;;;;;;5039975;28;19917;-86
2022/04/26 10:22:04;;;;;;;;;;;13.30;98.10;;;;;;5069008;28;19916;-86
2022/04/26 10:24:30;;;;;;;;;;;13.90;96.10;;;;;;5051562;28;19919;-88
2022/04/26 10:27:15;;;;;;;;;;;14.60;95.70;;;;;;5052072;28;19972;-87
2022/04/26 10:29:44;;;;;;;;;;;15.10;90.70;;;;;;5048076;28;19913;-85
2022/04/26 10:32:11;;;;;;;;;;;15.00;80.70;;;;;;5061047;28;19932;-88
2022/04/26 10:34:39;;;;;;;;;;;14.90;85.70;;;;;;5080001;28;19969;-88
2022/04/26 10:37:07;;;;;;;;;;;14.50;74.30;;;;;;5057955;28;19912;-87
2022/04/26 10:39:34;;;;;;;;;;;14.00;79.70;;;;;;5051911;28;19916;-86
2022/04/26 10:42:01;;;;;;;;;;;13.70;83.20;;;;;;5047976;28;19952;-85
2022/04/26 10:44:28;;;;;;;;;;;13.40;87.30;;;;;;5030781;28;19913;-87
2022/04/26 10:46:57;;;;;;;;;;;13.20;90.80;;;;;;5030709;28;19984;-87
2022/04/26 10:49:23;;;;;;;;;;;13.20;91.00;;;;;;5064809;28;20380;-87
2022/04/26 10:51:52;;;;;;;;;;;13.00;93.10;;;;;;5057954;28;19913;-86
2022/04/26 10:54:36;;;;;;;;;;;13.30;96.00;;;;;;5068432;28;19980;-86
2022/04/26 10:57:02;;;;;;;;;;;13.50;93.20;;;;;;5067833;28;19908;-88
2022/04/26 10:59:27;;;;;;;;;;;13.60;91.30;;;;;;5064425;28;19988;-86
2022/04/26 11:01:54;;;;;;;;;;;13.40;85.30;;;;;;5049868;28;19920;-86
2022/04/26 11:04:20;;;;;;;;;;;13.20;83.50;;;;;;5049965;28;19978;-88
2022/04/26 11:06:47;;;;;;;;;;;13.10;85.90;;;;;;5034747;28;19925;-86
2022/04/26 11:09:14;;;;;;;;;;;13.10;91.30;;;;;;5062096;28;19912;-86
2022/04/26 11:11:49;;;;;;;;;;;13.20;90.40;;;;;;5067494;28;19935;-86
2022/04/26 11:14:19;;;;;;;;;;;13.10;93.70;;;;;;5071155;28;19913;-88
2022/04/26 11:17:02;;;;;;;;;;;13.10;99.90;;;;;;5069920;28;19940;-88
2022/04/26 11:19:31;;;;;;;;;;;13.10;96.40;;;;;;5058157;28;19944;-89
2022/04/26 11:21:57;;;;;;;;;;;13.20;98.80;;;;;;5053829;28;19909;-86
2022/04/26 11:29:54;;;;;;;;;;;13.40;93.60;;;;;;5069092;28;19916;-86
2022/04/26 11:32:30;;;;;;;;;;;13.60;95.80;;;;;;5049183;28;19920;-87
2022/04/26 11:34:56;;;;;;;;;;;13.50;92.20;;;;;;5037684;28;19917;-87
2022/04/26 11:37:22;;;;;;;;;;;13.60;94.30;;;;;;5048954;28;20381;-87
2022/04/26 11:39:47;;;;;;;;;;;13.30;92.90;;;;;;5047824;28;19971;-87
2022/04/26 11:42:13;;;;;;;;;;;13.10;95.10;;;;;;5036183;28;19928;-85
2022/04/26 11:44:54;;;;;;;;;;;12.60;98.00;;;;;;5080480;28;19909;-85
2022/04/26 11:47:20;;;;;;;;;;;12.30;99.90;;;;;;5064369;28;19927;-87
2022/04/26 11:49:46;;;;;;;;;;;12.00;99.90;;;;;;5033453;28;19956;-86
2022/04/26 11:52:11;;;;;;;;;;;11.80;99.90;;;;;;5050162;28;19942;-85
2022/04/26 11:54:36;;;;;;;;;;;11.80;99.90;;;;;;5033432;28;19919;-85
2022/04/26 11:57:05;;;;;;;;;;;11.90;99.90;;;;;;5036158;28;19923;-86
2022/04/26 11:59:32;;;;;;;;;;;11.90;99.90;;;;;;5069658;28;19920;-85
2022/04/26 12:01:57;;;;;;;;;;;11.90;99.90;;;;;;5047931;28;19921;-84
2022/04/26 12:04:23;;;;;;;;;;;12.00;99.90;;;;;;5050212;28;19972;-85
2022/04/26 12:06:50;;;;;;;;;;;12.00;99.90;;;;;;5034139;28;20352;-85
2022/04/26 12:09:16;;;;;;;;;;;12.00;99.90;;;;;;5023652;28;20008;-85
2022/04/26 12:11:44;;;;;;;;;;;12.30;99.90;;;;;;5038229;28;19975;-85
2022/04/26 12:14:14;;;;;;;;;;;12.40;99.90;;;;;;5041002;28;19916;-85
2022/04/26 12:16:43;;;;;;;;;;;12.30;99.90;;;;;;5024039;28;19916;-85
2022/04/26 12:19:09;;;;;;;;;;;12.30;99.90;;;;;;5021413;28;19920;-85
2022/04/26 12:22:02;;;;;;;;;;;12.20;99.90;;;;;;5024741;28;20155;-85
2022/04/26 12:24:29;;;;;;;;;;;12.10;99.90;;;;;;5070071;28;19932;-85
2022/04/26 12:26:55;;;;;;;;;;;11.90;99.90;;;;;;5056118;28;19966;-85
2022/04/26 12:29:22;;;;;;;;;;;12.00;99.90;;;;;;5060674;28;19913;-85
2022/04/26 12:34:19;;;;;;;;;;;12.20;99.90;;;;;;5054588;28;19928;-83
2022/04/26 12:36:52;;;;;;;;;;;12.30;99.90;;;;;;5042608;28;20014;-82
2022/04/26 12:39:18;;;;;;;;;;;12.40;99.90;;;;;;5054546;28;19913;-82
2022/04/26 12:41:48;;;;;;;;;;;12.60;99.90;;;;;;5038405;28;20019;-82
2022/04/26 12:44:13;;;;;;;;;;;12.80;99.90;;;;;;5050815;28;19913;-82
2022/04/26 12:46:46;;;;;;;;;;;13.10;99.90;;;;;;5035013;28;20075;-82
2022/04/26 12:51:57;;;;;;;;;;;13.30;99.90;;;;;;5065526;28;20420;-83
2022/04/26 12:54:23;;;;;;;;;;;13.40;99.90;;;;;;5038226;28;19913;-82
2022/04/26 12:56:55;;;;;;;;;;;13.70;99.90;;;;;;5048961;28;20047;-82
2022/04/26 12:59:21;;;;;;;;;;;14.00;99.90;;;;;;5070134;28;19920;-82
2022/04/26 13:01:47;;;;;;;;;;;14.40;98.80;;;;;;5038236;28;19920;-82
2022/04/26 13:04:12;;;;;;;;;;;14.20;95.30;;;;;;5037986;28;19912;-82
2022/04/26 13:06:38;;;;;;;;;;;14.00;94.30;;;;;;5037853;28;20050;-82
2022/04/26 13:09:04;;;;;;;;;;;13.70;90.10;;;;;;5054219;28;19957;-82
2022/04/26 13:11:30;;;;;;;;;;;13.40;87.90;;;;;;5054267;28;19967;-82
2022/04/26 13:13:56;;;;;;;;;;;13.30;92.50;;;;;;5037733;28;19924;-82
2022/04/26 13:16:21;;;;;;;;;;;13.30;87.70;;;;;;5018140;28;20019;-82
2022/04/26 13:18:47;;;;;;;;;;;13.20;91.10;;;;;;5050504;28;19968;-82
2022/04/26 13:21:13;;;;;;;;;;;13.50;88.10;;;;;;5034248;28;19939;-82
2022/04/26 13:23:38;;;;;;;;;;;13.80;86.30;;;;;;5050754;28;20390;-82
2022/04/26 13:26:06;;;;;;;;;;;14.00;84.90;;;;;;5034212;28;20003;-82
2022/04/26 13:28:31;;;;;;;;;;;14.00;75.50;;;;;;5050251;28;20383;-81
2022/04/26 13:30:57;;;;;;;;;;;13.90;77.30;;;;;;5034102;28;19909;-82
2022/04/26 13:33:22;;;;;;;;;;;14.00;79.70;;;;;;5050080;28;19925;-82
2022/04/26 13:35:48;;;;;;;;;;;14.10;86.20;;;;;;5066671;28;19995;-82
2022/04/26 13:38:14;;;;;;;;;;;14.00;79.40;;;;;;5050174;28;19917;-82
2022/04/26 13:40:41;;;;;;;;;;;14.10;80.40;;;;;;5033836;28;20355;-82
2022/04/26 13:43:07;;;;;;;;;;;14.10;78.20;;;;;;5050483;28;20023;-82
2022/04/26 13:45:33;;;;;;;;;;;14.20;86.20;;;;;;5033634;28;20440;-82
2022/04/26 13:48:01;;;;;;;;;;;13.90;83.90;;;;;;5033592;28;20368;-81
2022/04/26 13:50:27;;;;;;;;;;;13.50;85.00;;;;;;5033639;28;19920;-81
2022/04/26 13:52:52;;;;;;;;;;;13.30;88.40;;;;;;5033456;28;20008;-82
2022/04/26 13:55:18;;;;;;;;;;;13.00;90.60;;;;;;5017287;28;19912;-81
2022/04/26 13:57:44;;;;;;;;;;;12.80;95.60;;;;;;5033332;28;19935;-82
2022/04/26 14:00:13;;;;;;;;;;;12.70;98.00;;;;;;5016914;28;19982;-81
2022/04/26 14:02:45;;;;;;;;;;;12.50;99.30;;;;;;5020153;28;19928;-82
2022/04/26 14:05:11;;;;;;;;;;;12.30;99.90;;;;;;5034790;28;19925;-81
2022/04/26 14:07:36;;;;;;;;;;;12.20;99.90;;;;;;5053237;28;20365;-81
2022/04/26 14:10:03;;;;;;;;;;;12.10;99.90;;;;;;5052919;28;19919;-81
2022/04/26 14:12:28;;;;;;;;;;;12.00;99.90;;;;;;5034005;28;19952;-81
2022/04/26 14:23:07;;;;;;;;;;;11.80;99.90;;;;;;5039595;28;19982;-82
2022/04/26 14:25:32;;;;;;;;;;;11.50;99.90;;;;;;5016369;28;20394;-82
2022/04/26 14:27:58;;;;;;;;;;;11.30;99.90;;;;;;5033134;28;20370;-81
2022/04/26 14:30:23;;;;;;;;;;;11.10;99.90;;;;;;5032642;28;19913;-82
2022/04/26 14:32:49;;;;;;;;;;;10.80;99.90;;;;;;5060520;28;20280;-82
2022/04/26 14:35:14;;;;;;;;;;;10.60;99.90;;;;;;5032818;28;19916;-82
2022/04/26 14:37:41;;;;;;;;;;;10.40;99.90;;;;;;5045596;28;19924;-82
2022/04/26 14:40:09;;;;;;;;;;;10.30;99.90;;;;;;5016257;28;19916;-84
2022/04/26 14:42:35;;;;;;;;;;;10.30;99.90;;;;;;5032771;28;19916;-84
2022/04/26 14:45:00;;;;;;;;;;;10.30;99.90;;;;;;5015133;28;19924;-83
2022/04/26 14:47:26;;;;;;;;;;;10.40;99.90;;;;;;5048255;28;19916;-83
2022/04/26 14:49:57;;;;;;;;;;;10.30;99.90;;;;;;5050270;28;19962;-84
2022/04/26 14:52:23;;;;;;;;;;;10.30;99.90;;;;;;5016256;28;19913;-84
2022/04/26 14:54:49;;;;;;;;;;;10.30;99.90;;;;;;5032709;28;19913;-84
2022/04/26 14:57:17;;;;;;;;;;;10.30;99.90;;;;;;5016020;28;20011;-84
2022/04/26 14:59:46;;;;;;;;;;;10.20;99.90;;;;;;5032326;28;19913;-85
2022/04/26 15:02:13;;;;;;;;;;;10.10;99.90;;;;;;5068303;28;20363;-84
2022/04/26 15:04:40;;;;;;;;;;;10.10;99.90;;;;;;5052406;28;19916;-84
2022/04/26 15:07:05;;;;;;;;;;;10.10;99.90;;;;;;5053111;28;19946;-84
2022/04/26 15:09:43;;;;;;;;;;;10.10;99.90;;;;;;5037741;28;19916;-86
2022/04/26 15:17:37;;;;;;;;;;;10.20;99.90;;;;;;5063884;28;19967;-84
2022/04/26 15:20:03;;;;;;;;;;;10.10;99.90;;;;;;5050052;28;19921;-84
2022/04/26 15:22:29;;;;;;;;;;;10.00;99.90;;;;;;5016212;28;19913;-85
2022/04/26 15:24:55;;;;;;;;;;;10.00;99.90;;;;;;5045835;28;20008;-85
2022/04/26 15:27:21;;;;;;;;;;;10.00;99.90;;;;;;5049122;28;20004;-85
2022/04/26 15:29:46;;;;;;;;;;;10.20;99.90;;;;;;5030205;28;19920;-85
2022/04/26 15:32:12;;;;;;;;;;;10.20;99.90;;;;;;5052106;28;19948;-84
2022/04/26 15:34:40;;;;;;;;;;;10.20;99.90;;;;;;5044127;28;19919;-85
2022/04/26 15:37:06;;;;;;;;;;;10.30;99.90;;;;;;5032144;28;19923;-85
2022/04/26 15:39:32;;;;;;;;;;;10.50;99.90;;;;;;5032322;28;19913;-86
2022/04/26 15:41:59;;;;;;;;;;;10.60;99.90;;;;;;5012524;28;19913;-84
2022/04/26 15:44:25;;;;;;;;;;;10.60;99.90;;;;;;5054470;28;19920;-85
2022/04/26 15:46:54;;;;;;;;;;;10.60;99.90;;;;;;5049638;28;19970;-82
2022/04/26 15:49:20;;;;;;;;;;;10.50;99.90;;;;;;5077652;28;19917;-81
2022/04/26 15:51:47;;;;;;;;;;;10.60;99.90;;;;;;5049844;28;19920;-81
2022/04/26 15:54:14;;;;;;;;;;;10.50;99.90;;;;;;5032254;28;19919;-82
2022/04/26 15:56:41;;;;;;;;;;;10.50;99.90;;;;;;5052486;28;19916;-82
2022/04/26 15:59:07;;;;;;;;;;;10.30;99.90;;;;;;5053727;28;20069;-82
2022/04/26 16:01:33;;;;;;;;;;;10.30;99.90;;;;;;5022926;28;20011;-82
2022/04/26 16:04:00;;;;;;;;;;;10.20;99.90;;;;;;5043990;28;19912;-82
2022/04/26 16:06:26;;;;;;;;;;;10.10;99.90;;;;;;5043818;28;19939;-81
2022/04/26 16:08:51;;;;;;;;;;;10.10;99.90;;;;;;5021439;28;20391;-81
2022/04/26 16:22:15;;;;;;;;;;;10.40;99.90;;;;;;5050783;28;19924;-81
2022/04/26 16:24:41;;;;;;;;;;;10.40;99.90;;;;;;5070372;28;20008;-82
2022/04/26 16:27:07;;;;;;;;;;;10.30;99.90;;;;;;5046084;28;20003;-82
2022/04/26 16:29:33;;;;;;;;;;;10.20;99.90;;;;;;5068059;28;19912;-82
2022/04/26 16:31:58;;;;;;;;;;;10.10;99.90;;;;;;5053690;28;20417;-82
2022/04/26 16:34:24;;;;;;;;;;;10.00;99.90;;;;;;5038227;28;19920;-83
2022/04/26 16:36:50;;;;;;;;;;;9.80;99.90;;;;;;5067284;28;19917;-88
2022/04/26 16:39:16;;;;;;;;;;;9.70;99.90;;;;;;5020930;28;19924;-86
2022/04/26 16:41:41;;;;;;;;;;;9.60;99.90;;;;;;5016941;28;20390;-86
2022/04/26 16:44:07;;;;;;;;;;;9.40;99.90;;;;;;5048799;28;20416;-86
2022/04/26 16:46:33;;;;;;;;;;;9.40;99.90;;;;;;5039013;28;19940;-87
2022/04/26 16:49:01;;;;;;;;;;;9.30;99.90;;;;;;5041155;28;19917;-87
2022/04/26 16:51:29;;;;;;;;;;;9.20;99.90;;;;;;5068162;28;19912;-85
2022/04/26 16:53:55;;;;;;;;;;;9.10;99.90;;;;;;5051798;28;19916;-86
2022/04/26 16:56:20;;;;;;;;;;;9.10;99.90;;;;;;5041956;28;19913;-86
2022/04/26 16:58:46;;;;;;;;;;;9.00;99.90;;;;;;5023636;28;19975;-85
2022/04/26 17:01:11;;;;;;;;;;;9.00;99.90;;;;;;5032086;28;19920;-86
2022/04/26 17:03:37;;;;;;;;;;;9.00;99.90;;;;;;5051059;28;19917;-86
2022/04/26 17:06:04;;;;;;;;;;;9.00;99.90;;;;;;5053083;28;20402;-85
2022/04/26 17:08:30;;;;;;;;;;;9.00;99.90;;;;;;5054062;28;19919;-85
2022/04/26 17:11:41;;;;;;;;;;;9.00;99.90;;;;;;5014905;28;19913;-84
2022/04/26 17:13:42;;;;;;;;;;;9.00;99.90;;;;;;5052522;28;19912;-84
2022/04/26 17:16:08;;;;;;;;;;;9.10;99.90;;;;;;5036289;28;19908;-85
2022/04/26 17:18:41;;;;;;;;;;;9.10;99.90;;;;;;5048700;28;20505;-85
2022/04/26 17:21:08;;;;;;;;;;;9.10;99.90;;;;;;5033801;28;20338;-86
2022/04/26 17:23:34;;;;;;;;;;;9.10;99.90;;;;;;5054674;28;19914;-86
2022/04/26 17:25:59;;;;;;;;;;;9.10;99.90;;;;;;5030725;28;19929;-86
2022/04/26 17:28:25;;;;;;;;;;;9.10;99.90;;;;;;5026435;28;19912;-86
2022/04/26 17:30:50;;;;;;;;;;;9.00;99.90;;;;;;5018332;28;19924;-86
2022/04/26 17:33:16;;;;;;;;;;;9.00;99.90;;;;;;5044764;28;19920;-86
2022/04/26 17:35:41;;;;;;;;;;;8.90;99.90;;;;;;5033872;28;19916;-86
2022/04/26 17:38:07;;;;;;;;;;;8.80;99.90;;;;;;5037480;28;20288;-86
2022/04/26 17:40:33;;;;;;;;;;;8.80;99.90;;;;;;5035625;28;19948;-86
2022/04/26 17:42:58;;;;;;;;;;;8.80;99.90;;;;;;5053424;28;20360;-85
2022/04/26 17:45:24;;;;;;;;;;;8.70;99.90;;;;;;5033567;28;19975;-86
2022/04/26 17:47:49;;;;;;;;;;;8.70;99.90;;;;;;5017276;28;19971;-86
2022/04/26 17:50:15;;;;;;;;;;;8.70;99.90;;;;;;5017251;28;20371;-85
2022/04/26 17:58:09;;;;;;;;;;;8.60;99.90;;;;;;5042323;28;20108;-86
2022/04/26 18:00:35;;;;;;;;;;;8.60;99.90;;;;;;5021416;28;19925;-86
2022/04/26 18:03:01;;;;;;;;;;;8.50;99.90;;;;;;5016993;28;19913;-86
2022/04/26 18:05:27;;;;;;;;;;;8.50;99.90;;;;;;5028365;28;19916;-86
2022/04/26 18:07:52;;;;;;;;;;;8.40;99.90;;;;;;5044299;28;19909;-86
2022/04/26 18:10:18;;;;;;;;;;;8.40;99.90;;;;;;5016589;28;19956;-85
2022/04/26 18:12:44;;;;;;;;;;;8.40;99.90;;;;;;5020253;28;19928;-85
2022/04/26 18:15:09;;;;;;;;;;;8.30;99.90;;;;;;5016963;28;19916;-85
2022/04/26 18:17:35;;;;;;;;;;;8.30;99.90;;;;;;5016594;28;19917;-83
2022/04/26 18:20:01;;;;;;;;;;;8.30;99.90;;;;;;5033555;28;20055;-84
2022/04/26 18:22:26;;;;;;;;;;;8.20;99.90;;;;;;5035132;28;19908;-84
2022/04/26 18:24:52;;;;;;;;;;;8.20;99.90;;;;;;5016723;28;19913;-84
2022/04/26 18:27:17;;;;;;;;;;;8.20;99.90;;;;;;5016499;28;20016;-84
2022/04/26 18:29:43;;;;;;;;;;;8.20;99.90;;;;;;5036168;28;20279;-84
2022/04/26 18:32:09;;;;;;;;;;;8.20;99.90;;;;;;5044138;22;19917;-85
2022/04/26 18:34:34;;;;;;;;;;;8.10;99.90;;;;;;5053571;28;19938;-85
2022/04/26 18:37:00;;;;;;;;;;;8.10;99.90;;;;;;5036644;28;20129;-86
2022/04/26 18:39:25;;;;;;;;;;;8.10;99.90;;;;;;5036830;28;20007;-86
2022/04/26 18:41:56;;;;;;;;;;;8.10;99.90;;;;;;5036368;28;20361;-86
2022/04/26 18:44:23;;;;;;;;;;;8.10;99.90;;;;;;5037217;28;19913;-86
2022/04/26 18:46:49;;;;;;;;;;;8.10;99.90;;;;;;5077503;28;19920;-85